sensor_id;sensor_type;location;lat;lon;timestamp;pressure;altitude;pressure_sealevel;temperature
76713;BMP280;65640;43.154;25.658;2023-07-30T00:00:20;100333.78;;;18.76
76713;BMP280;65640;43.154;25.658;2023-07-30T00:02:45;100334.78;;;18.84
76713;BMP280;65640;43.154;25.658;2023-07-30T00:05:11;100332.38;;;19.03
76713;BMP280;65640;43.154;25.658;2023-07-30T00:07:36;100332.38;;;19.15
76713;BMP280;65640;43.154;25.658;2023-07-30T00:10:01;100327.38;;;19.02
76713;BMP280;65640;43.154;25.658;2023-07-30T00:12:27;100333.03;;;19.12
76713;BMP280;65640;43.154;25.658;2023-07-30T00:14:52;100322.84;;;19.02
76713;BMP280;65640;43.154;25.658;2023-07-30T00:17:18;100329.59;;;19.00
76713;BMP280;65640;43.154;25.658;2023-07-30T00:19:43;100329.69;;;18.79
76713;BMP280;65640;43.154;25.658;2023-07-30T00:22:08;100332.22;;;18.75
76713;BMP280;65640;43.154;25.658;2023-07-30T00:24:34;100328.25;;;18.69
76713;BMP280;65640;43.154;25.658;2023-07-30T00:26:59;100328.47;;;18.64
76713;BMP280;65640;43.154;25.658;2023-07-30T00:29:25;100330.88;;;18.57
76713;BMP280;65640;43.154;25.658;2023-07-30T00:31:50;100322.41;;;18.64
76713;BMP280;65640;43.154;25.658;2023-07-30T00:34:15;100319.22;;;18.82
76713;BMP280;65640;43.154;25.658;2023-07-30T00:36:41;100326.50;;;18.98
76713;BMP280;65640;43.154;25.658;2023-07-30T00:39:06;100316.13;;;19.05
76713;BMP280;65640;43.154;25.658;2023-07-30T00:41:32;100322.59;;;18.83
76713;BMP280;65640;43.154;25.658;2023-07-30T00:43:57;100316.53;;;18.70
76713;BMP280;65640;43.154;25.658;2023-07-30T00:46:23;100324.66;;;18.53
76713;BMP280;65640;43.154;25.658;2023-07-30T00:48:48;100323.94;;;18.32
76713;BMP280;65640;43.154;25.658;2023-07-30T00:51:16;100327.03;;;18.22
76713;BMP280;65640;43.154;25.658;2023-07-30T00:53:41;100331.22;;;18.23
76713;BMP280;65640;43.154;25.658;2023-07-30T00:56:07;100328.91;;;18.21
76713;BMP280;65640;43.154;25.658;2023-07-30T00:58:33;100330.00;;;18.20
76713;BMP280;65640;43.154;25.658;2023-07-30T01:00:58;100323.00;;;18.16
76713;BMP280;65640;43.154;25.658;2023-07-30T01:03:24;100325.56;;;18.45
76713;BMP280;65640;43.154;25.658;2023-07-30T01:05:49;100333.81;;;18.43
76713;BMP280;65640;43.154;25.658;2023-07-30T01:08:15;100330.41;;;18.43
76713;BMP280;65640;43.154;25.658;2023-07-30T01:10:41;100328.78;;;18.30
76713;BMP280;65640;43.154;25.658;2023-07-30T01:13:07;100329.81;;;18.37
76713;BMP280;65640;43.154;25.658;2023-07-30T01:15:34;100320.16;;;18.21
76713;BMP280;65640;43.154;25.658;2023-07-30T01:17:59;100321.16;;;18.16
76713;BMP280;65640;43.154;25.658;2023-07-30T01:20:29;100321.25;;;18.20
76713;BMP280;65640;43.154;25.658;2023-07-30T01:22:55;100321.84;;;18.37
76713;BMP280;65640;43.154;25.658;2023-07-30T01:25:23;100323.25;;;18.23
76713;BMP280;65640;43.154;25.658;2023-07-30T01:27:52;100318.09;;;18.06
76713;BMP280;65640;43.154;25.658;2023-07-30T01:30:27;100323.81;;;17.95
76713;BMP280;65640;43.154;25.658;2023-07-30T01:32:53;100321.22;;;18.08
76713;BMP280;65640;43.154;25.658;2023-07-30T01:35:21;100320.97;;;18.01
76713;BMP280;65640;43.154;25.658;2023-07-30T01:37:50;100321.75;;;17.80
76713;BMP280;65640;43.154;25.658;2023-07-30T01:40:16;100325.91;;;17.81
76713;BMP280;65640;43.154;25.658;2023-07-30T01:42:42;100322.66;;;17.84
76713;BMP280;65640;43.154;25.658;2023-07-30T01:45:07;100326.25;;;17.80
76713;BMP280;65640;43.154;25.658;2023-07-30T01:47:33;100326.50;;;17.66
76713;BMP280;65640;43.154;25.658;2023-07-30T01:49:58;100323.63;;;17.50
76713;BMP280;65640;43.154;25.658;2023-07-30T01:52:25;100335.66;;;17.48
76713;BMP280;65640;43.154;25.658;2023-07-30T01:54:50;100326.19;;;17.38
76713;BMP280;65640;43.154;25.658;2023-07-30T01:57:16;100326.63;;;17.49
76713;BMP280;65640;43.154;25.658;2023-07-30T01:59:41;100321.00;;;17.50
76713;BMP280;65640;43.154;25.658;2023-07-30T02:02:07;100316.16;;;17.53
76713;BMP280;65640;43.154;25.658;2023-07-30T02:04:33;100317.59;;;17.71
76713;BMP280;65640;43.154;25.658;2023-07-30T02:06:58;100321.22;;;17.87
76713;BMP280;65640;43.154;25.658;2023-07-30T02:09:24;100320.38;;;17.95
76713;BMP280;65640;43.154;25.658;2023-07-30T02:11:50;100322.66;;;17.84
76713;BMP280;65640;43.154;25.658;2023-07-30T02:14:17;100321.22;;;17.87
76713;BMP280;65640;43.154;25.658;2023-07-30T02:16:42;100321.63;;;17.98
76713;BMP280;65640;43.154;25.658;2023-07-30T02:19:08;100322.94;;;18.04
76713;BMP280;65640;43.154;25.658;2023-07-30T02:21:33;100319.66;;;18.07
76713;BMP280;65640;43.154;25.658;2023-07-30T02:24:01;100323.56;;;17.88
76713;BMP280;65640;43.154;25.658;2023-07-30T02:26:26;100321.63;;;17.77
76713;BMP280;65640;43.154;25.658;2023-07-30T02:28:52;100323.94;;;17.78
76713;BMP280;65640;43.154;25.658;2023-07-30T02:31:17;100322.56;;;17.72
76713;BMP280;65640;43.154;25.658;2023-07-30T02:33:43;100320.75;;;17.64
76713;BMP280;65640;43.154;25.658;2023-07-30T02:36:08;100323.16;;;17.57
76713;BMP280;65640;43.154;25.658;2023-07-30T02:38:33;100330.75;;;17.59
76713;BMP280;65640;43.154;25.658;2023-07-30T02:40:59;100324.25;;;17.56
76713;BMP280;65640;43.154;25.658;2023-07-30T02:43:24;100323.53;;;17.68
76713;BMP280;65640;43.154;25.658;2023-07-30T02:45:49;100325.69;;;17.74
76713;BMP280;65640;43.154;25.658;2023-07-30T02:48:15;100324.19;;;17.65
76713;BMP280;65640;43.154;25.658;2023-07-30T02:50:40;100329.63;;;17.68
76713;BMP280;65640;43.154;25.658;2023-07-30T02:53:06;100331.81;;;17.87
76713;BMP280;65640;43.154;25.658;2023-07-30T02:55:31;100332.91;;;17.86
76713;BMP280;65640;43.154;25.658;2023-07-30T02:57:56;100332.69;;;17.70
76713;BMP280;65640;43.154;25.658;2023-07-30T03:00:22;100327.78;;;17.60
76713;BMP280;65640;43.154;25.658;2023-07-30T03:02:47;100337.50;;;17.77
76713;BMP280;65640;43.154;25.658;2023-07-30T03:05:13;100333.34;;;17.67
76713;BMP280;65640;43.154;25.658;2023-07-30T03:07:38;100339.47;;;17.59
76713;BMP280;65640;43.154;25.658;2023-07-30T03:10:04;100342.66;;;17.73
76713;BMP280;65640;43.154;25.658;2023-07-30T03:12:29;100344.13;;;17.62
76713;BMP280;65640;43.154;25.658;2023-07-30T03:14:55;100338.59;;;17.55
76713;BMP280;65640;43.154;25.658;2023-07-30T03:17:20;100346.09;;;17.44
76713;BMP280;65640;43.154;25.658;2023-07-30T03:19:46;100356.53;;;17.41
76713;BMP280;65640;43.154;25.658;2023-07-30T03:22:12;100353.72;;;17.46
76713;BMP280;65640;43.154;25.658;2023-07-30T03:24:37;100350.28;;;17.45
76713;BMP280;65640;43.154;25.658;2023-07-30T03:27:03;100358.22;;;17.45
76713;BMP280;65640;43.154;25.658;2023-07-30T03:29:28;100362.09;;;17.57
76713;BMP280;65640;43.154;25.658;2023-07-30T03:31:53;100351.66;;;17.52
76713;BMP280;65640;43.154;25.658;2023-07-30T03:34:19;100347.25;;;17.35
76713;BMP280;65640;43.154;25.658;2023-07-30T03:36:44;100342.75;;;17.35
76713;BMP280;65640;43.154;25.658;2023-07-30T03:39:10;100343.47;;;17.44
76713;BMP280;65640;43.154;25.658;2023-07-30T03:41:36;100348.41;;;17.55
76713;BMP280;65640;43.154;25.658;2023-07-30T03:44:01;100343.69;;;17.60
76713;BMP280;65640;43.154;25.658;2023-07-30T03:46:27;100347.06;;;17.61
76713;BMP280;65640;43.154;25.658;2023-07-30T03:48:52;100346.22;;;17.77
76713;BMP280;65640;43.154;25.658;2023-07-30T03:51:18;100345.44;;;17.77
76713;BMP280;65640;43.154;25.658;2023-07-30T03:53:43;100349.38;;;17.91
76713;BMP280;65640;43.154;25.658;2023-07-30T03:56:09;100353.41;;;17.98
76713;BMP280;65640;43.154;25.658;2023-07-30T03:58:34;100359.72;;;18.05
76713;BMP280;65640;43.154;25.658;2023-07-30T04:01:01;100362.38;;;18.26
76713;BMP280;65640;43.154;25.658;2023-07-30T04:03:27;100357.63;;;18.31
76713;BMP280;65640;43.154;25.658;2023-07-30T04:05:52;100358.97;;;18.37
76713;BMP280;65640;43.154;25.658;2023-07-30T04:08:17;100358.00;;;18.42
76713;BMP280;65640;43.154;25.658;2023-07-30T04:10:43;100355.19;;;18.26
76713;BMP280;65640;43.154;25.658;2023-07-30T04:13:08;100360.84;;;18.37
76713;BMP280;65640;43.154;25.658;2023-07-30T04:15:34;100360.34;;;18.43
76713;BMP280;65640;43.154;25.658;2023-07-30T04:17:59;100358.00;;;18.42
76713;BMP280;65640;43.154;25.658;2023-07-30T04:20:25;100361.50;;;18.34
76713;BMP280;65640;43.154;25.658;2023-07-30T04:22:51;100364.88;;;18.43
76713;BMP280;65640;43.154;25.658;2023-07-30T04:25:16;100362.88;;;18.52
76713;BMP280;65640;43.154;25.658;2023-07-30T04:27:42;100368.06;;;18.49
76713;BMP280;65640;43.154;25.658;2023-07-30T04:30:08;100372.19;;;18.58
76713;BMP280;65640;43.154;25.658;2023-07-30T04:32:34;100373.75;;;18.59
76713;BMP280;65640;43.154;25.658;2023-07-30T04:35:00;100372.56;;;18.69
76713;BMP280;65640;43.154;25.658;2023-07-30T04:37:26;100369.03;;;18.77
76713;BMP280;65640;43.154;25.658;2023-07-30T04:39:51;100371.59;;;18.98
76713;BMP280;65640;43.154;25.658;2023-07-30T04:42:17;100375.50;;;19.12
76713;BMP280;65640;43.154;25.658;2023-07-30T04:44:43;100373.50;;;19.21
76713;BMP280;65640;43.154;25.658;2023-07-30T04:47:09;100382.13;;;19.42
76713;BMP280;65640;43.154;25.658;2023-07-30T04:49:34;100380.88;;;19.64
76713;BMP280;65640;43.154;25.658;2023-07-30T04:52:02;100380.72;;;19.85
76713;BMP280;65640;43.154;25.658;2023-07-30T04:54:27;100383.25;;;20.06
76713;BMP280;65640;43.154;25.658;2023-07-30T04:56:53;100383.19;;;20.18
76713;BMP280;65640;43.154;25.658;2023-07-30T04:59:18;100378.34;;;20.51
76713;BMP280;65640;43.154;25.658;2023-07-30T05:01:44;100384.53;;;20.86
76713;BMP280;65640;43.154;25.658;2023-07-30T05:04:09;100381.03;;;20.98
76713;BMP280;65640;43.154;25.658;2023-07-30T05:06:35;100371.78;;;21.27
76713;BMP280;65640;43.154;25.658;2023-07-30T05:09:00;100366.22;;;21.51
76713;BMP280;65640;43.154;25.658;2023-07-30T05:11:26;100367.59;;;21.61
76713;BMP280;65640;43.154;25.658;2023-07-30T05:13:51;100364.41;;;21.55
76713;BMP280;65640;43.154;25.658;2023-07-30T05:16:16;100369.84;;;21.59
76713;BMP280;65640;43.154;25.658;2023-07-30T05:18:42;100361.19;;;21.65
76713;BMP280;65640;43.154;25.658;2023-07-30T05:21:07;100360.16;;;21.70
76713;BMP280;65640;43.154;25.658;2023-07-30T05:23:33;100362.13;;;21.73
76713;BMP280;65640;43.154;25.658;2023-07-30T05:25:58;100357.09;;;21.90
76713;BMP280;65640;43.154;25.658;2023-07-30T05:28:23;100362.78;;;21.85
76713;BMP280;65640;43.154;25.658;2023-07-30T05:30:49;100361.59;;;21.67
76713;BMP280;65640;43.154;25.658;2023-07-30T05:33:15;100353.59;;;21.86
76713;BMP280;65640;43.154;25.658;2023-07-30T05:35:40;100355.97;;;22.11
76713;BMP280;65640;43.154;25.658;2023-07-30T05:38:06;100358.50;;;22.23
76713;BMP280;65640;43.154;25.658;2023-07-30T05:40:31;100361.03;;;22.38
76713;BMP280;65640;43.154;25.658;2023-07-30T05:42:56;100360.31;;;22.64
76713;BMP280;65640;43.154;25.658;2023-07-30T05:45:22;100370.50;;;22.81
76713;BMP280;65640;43.154;25.658;2023-07-30T05:47:47;100372.38;;;23.04
76713;BMP280;65640;43.154;25.658;2023-07-30T05:50:12;100369.31;;;23.31
76713;BMP280;65640;43.154;25.658;2023-07-30T05:52:38;100372.97;;;23.49
76713;BMP280;65640;43.154;25.658;2023-07-30T05:55:04;100369.84;;;23.74
76713;BMP280;65640;43.154;25.658;2023-07-30T05:57:30;100373.94;;;23.68
76713;BMP280;65640;43.154;25.658;2023-07-30T05:59:55;100373.00;;;23.83
76713;BMP280;65640;43.154;25.658;2023-07-30T06:02:20;100371.34;;;24.12
76713;BMP280;65640;43.154;25.658;2023-07-30T06:04:46;100372.28;;;24.26
76713;BMP280;65640;43.154;25.658;2023-07-30T06:07:11;100371.94;;;24.35
76713;BMP280;65640;43.154;25.658;2023-07-30T06:09:36;100373.53;;;24.43
76713;BMP280;65640;43.154;25.658;2023-07-30T06:12:02;100364.47;;;24.54
76713;BMP280;65640;43.154;25.658;2023-07-30T06:14:28;100372.63;;;24.72
76713;BMP280;65640;43.154;25.658;2023-07-30T06:16:53;100371.50;;;24.80
76713;BMP280;65640;43.154;25.658;2023-07-30T06:19:19;100372.75;;;24.90
76713;BMP280;65640;43.154;25.658;2023-07-30T06:21:45;100366.28;;;25.01
76713;BMP280;65640;43.154;25.658;2023-07-30T06:24:10;100370.63;;;25.20
76713;BMP280;65640;43.154;25.658;2023-07-30T06:26:36;100367.41;;;24.93
76713;BMP280;65640;43.154;25.658;2023-07-30T06:29:01;100362.81;;;24.97
76713;BMP280;65640;43.154;25.658;2023-07-30T06:31:26;100360.28;;;25.26
76713;BMP280;65640;43.154;25.658;2023-07-30T06:33:52;100364.19;;;25.49
76713;BMP280;65640;43.154;25.658;2023-07-30T06:36:17;100354.31;;;25.82
76713;BMP280;65640;43.154;25.658;2023-07-30T06:38:43;100356.25;;;26.02
76713;BMP280;65640;43.154;25.658;2023-07-30T06:41:08;100350.50;;;26.14
76713;BMP280;65640;43.154;25.658;2023-07-30T06:43:34;100342.44;;;26.35
76713;BMP280;65640;43.154;25.658;2023-07-30T06:45:59;100345.06;;;26.64
76713;BMP280;65640;43.154;25.658;2023-07-30T06:48:25;100333.09;;;26.93
76713;BMP280;65640;43.154;25.658;2023-07-30T06:50:51;100336.09;;;27.06
76713;BMP280;65640;43.154;25.658;2023-07-30T06:53:16;100340.78;;;26.87
76713;BMP280;65640;43.154;25.658;2023-07-30T06:55:41;100343.38;;;27.09
76713;BMP280;65640;43.154;25.658;2023-07-30T06:58:07;100342.91;;;27.31
76713;BMP280;65640;43.154;25.658;2023-07-30T07:00:32;100329.81;;;27.33
76713;BMP280;65640;43.154;25.658;2023-07-30T07:02:58;100334.34;;;27.50
76713;BMP280;65640;43.154;25.658;2023-07-30T07:05:23;100323.75;;;27.81
76713;BMP280;65640;43.154;25.658;2023-07-30T07:07:49;100319.81;;;27.89
76713;BMP280;65640;43.154;25.658;2023-07-30T07:10:14;100324.31;;;28.06
76713;BMP280;65640;43.154;25.658;2023-07-30T07:12:40;100323.44;;;28.16
76713;BMP280;65640;43.154;25.658;2023-07-30T07:15:05;100321.75;;;28.29
76713;BMP280;65640;43.154;25.658;2023-07-30T07:17:31;100316.59;;;28.45
76713;BMP280;65640;43.154;25.658;2023-07-30T07:19:57;100314.81;;;28.65
76713;BMP280;65640;43.154;25.658;2023-07-30T07:22:22;100312.03;;;28.72
76713;BMP280;65640;43.154;25.658;2023-07-30T07:24:48;100311.63;;;28.74
76713;BMP280;65640;43.154;25.658;2023-07-30T07:27:13;100308.44;;;28.83
76713;BMP280;65640;43.154;25.658;2023-07-30T07:29:39;100309.69;;;29.05
76713;BMP280;65640;43.154;25.658;2023-07-30T07:32:04;100301.63;;;29.28
76713;BMP280;65640;43.154;25.658;2023-07-30T07:34:30;100307.16;;;29.21
76713;BMP280;65640;43.154;25.658;2023-07-30T07:36:55;100299.44;;;29.23
76713;BMP280;65640;43.154;25.658;2023-07-30T07:39:20;100294.72;;;29.50
76713;BMP280;65640;43.154;25.658;2023-07-30T07:41:46;100292.66;;;29.61
76713;BMP280;65640;43.154;25.658;2023-07-30T07:44:11;100296.88;;;29.62
76713;BMP280;65640;43.154;25.658;2023-07-30T07:46:36;100286.22;;;29.75
76713;BMP280;65640;43.154;25.658;2023-07-30T07:49:02;100284.84;;;29.90
76713;BMP280;65640;43.154;25.658;2023-07-30T07:51:27;100289.19;;;30.04
76713;BMP280;65640;43.154;25.658;2023-07-30T07:53:52;100290.09;;;30.17
76713;BMP280;65640;43.154;25.658;2023-07-30T07:56:18;100288.22;;;30.33
76713;BMP280;65640;43.154;25.658;2023-07-30T07:58:43;100277.00;;;30.54
76713;BMP280;65640;43.154;25.658;2023-07-30T08:01:09;100274.47;;;30.63
76713;BMP280;65640;43.154;25.658;2023-07-30T08:03:34;100274.66;;;30.89
76713;BMP280;65640;43.154;25.658;2023-07-30T08:05:59;100276.22;;;31.22
76713;BMP280;65640;43.154;25.658;2023-07-30T08:08:26;100280.00;;;31.41
76713;BMP280;65640;43.154;25.658;2023-07-30T08:10:51;100268.41;;;31.56
76713;BMP280;65640;43.154;25.658;2023-07-30T08:13:17;100272.06;;;31.50
76713;BMP280;65640;43.154;25.658;2023-07-30T08:15:42;100273.06;;;31.56
76713;BMP280;65640;43.154;25.658;2023-07-30T08:18:07;100266.59;;;31.66
76713;BMP280;65640;43.154;25.658;2023-07-30T08:20:33;100274.00;;;31.49
76713;BMP280;65640;43.154;25.658;2023-07-30T08:22:58;100255.00;;;31.65
76713;BMP280;65640;43.154;25.658;2023-07-30T08:25:24;100261.22;;;31.94
76713;BMP280;65640;43.154;25.658;2023-07-30T08:27:49;100259.41;;;32.17
76713;BMP280;65640;43.154;25.658;2023-07-30T08:30:15;100260.16;;;32.30
76713;BMP280;65640;43.154;25.658;2023-07-30T08:32:40;100262.69;;;32.49
76713;BMP280;65640;43.154;25.658;2023-07-30T08:35:08;100260.63;;;32.53
76713;BMP280;65640;43.154;25.658;2023-07-30T08:37:34;100260.41;;;32.35
76713;BMP280;65640;43.154;25.658;2023-07-30T08:39:59;100256.81;;;32.38
76713;BMP280;65640;43.154;25.658;2023-07-30T08:42:25;100248.56;;;32.29
76713;BMP280;65640;43.154;25.658;2023-07-30T08:44:50;100249.66;;;32.44
76713;BMP280;65640;43.154;25.658;2023-07-30T08:47:16;100243.47;;;32.82
76713;BMP280;65640;43.154;25.658;2023-07-30T08:49:41;100245.16;;;33.01
76713;BMP280;65640;43.154;25.658;2023-07-30T08:52:10;100238.66;;;32.98
76713;BMP280;65640;43.154;25.658;2023-07-30T08:54:37;100238.06;;;33.16
76713;BMP280;65640;43.154;25.658;2023-07-30T08:57:04;100236.53;;;33.27
76713;BMP280;65640;43.154;25.658;2023-07-30T08:59:36;100230.06;;;33.34
76713;BMP280;65640;43.154;25.658;2023-07-30T09:02:04;100241.34;;;33.45
76713;BMP280;65640;43.154;25.658;2023-07-30T09:04:34;100228.81;;;33.26
76713;BMP280;65640;43.154;25.658;2023-07-30T09:07:01;100226.81;;;33.05
76713;BMP280;65640;43.154;25.658;2023-07-30T09:09:27;100234.81;;;33.08
76713;BMP280;65640;43.154;25.658;2023-07-30T09:11:52;100228.06;;;33.13
76713;BMP280;65640;43.154;25.658;2023-07-30T09:14:20;100224.59;;;33.25
76713;BMP280;65640;43.154;25.658;2023-07-30T09:16:46;100223.53;;;33.10
76713;BMP280;65640;43.154;25.658;2023-07-30T09:19:18;100222.00;;;33.09
76713;BMP280;65640;43.154;25.658;2023-07-30T09:21:43;100220.72;;;33.35
76713;BMP280;65640;43.154;25.658;2023-07-30T09:24:09;100215.06;;;33.42
76713;BMP280;65640;43.154;25.658;2023-07-30T09:26:45;100209.63;;;33.42
76713;BMP280;65640;43.154;25.658;2023-07-30T09:29:11;100203.53;;;33.81
76713;BMP280;65640;43.154;25.658;2023-07-30T09:31:47;100197.75;;;33.79
76713;BMP280;65640;43.154;25.658;2023-07-30T09:34:17;100198.44;;;33.92
76713;BMP280;65640;43.154;25.658;2023-07-30T09:36:44;100192.22;;;34.23
76713;BMP280;65640;43.154;25.658;2023-07-30T09:39:25;100191.94;;;34.30
76713;BMP280;65640;43.154;25.658;2023-07-30T09:41:53;100195.13;;;34.28
76713;BMP280;65640;43.154;25.658;2023-07-30T09:44:20;100191.81;;;34.33
76713;BMP280;65640;43.154;25.658;2023-07-30T09:46:49;100182.00;;;34.36
76713;BMP280;65640;43.154;25.658;2023-07-30T09:49:16;100180.97;;;34.51
76713;BMP280;65640;43.154;25.658;2023-07-30T09:51:41;100183.75;;;34.78
76713;BMP280;65640;43.154;25.658;2023-07-30T09:54:16;100181.91;;;34.75
76713;BMP280;65640;43.154;25.658;2023-07-30T09:56:42;100178.31;;;34.78
76713;BMP280;65640;43.154;25.658;2023-07-30T09:59:09;100172.22;;;34.74
76713;BMP280;65640;43.154;25.658;2023-07-30T10:01:46;100170.13;;;34.88
76713;BMP280;65640;43.154;25.658;2023-07-30T10:04:12;100164.22;;;34.80
76713;BMP280;65640;43.154;25.658;2023-07-30T10:06:40;100158.19;;;34.76
76713;BMP280;65640;43.154;25.658;2023-07-30T10:09:07;100165.13;;;34.68
76713;BMP280;65640;43.154;25.658;2023-07-30T10:11:34;100159.09;;;34.73
76713;BMP280;65640;43.154;25.658;2023-07-30T10:14:01;100150.63;;;34.71
76713;BMP280;65640;43.154;25.658;2023-07-30T10:16:28;100149.88;;;34.61
76713;BMP280;65640;43.154;25.658;2023-07-30T10:18:57;100158.16;;;34.67
76713;BMP280;65640;43.154;25.658;2023-07-30T10:21:24;100150.28;;;34.69
76713;BMP280;65640;43.154;25.658;2023-07-30T10:24:04;100135.97;;;34.87
76713;BMP280;65640;43.154;25.658;2023-07-30T10:26:33;100141.34;;;35.23
76713;BMP280;65640;43.154;25.658;2023-07-30T10:29:18;100132.88;;;35.21
76713;BMP280;65640;43.154;25.658;2023-07-30T10:31:51;100135.91;;;35.23
76713;BMP280;65640;43.154;25.658;2023-07-30T10:34:17;100129.19;;;35.33
76713;BMP280;65640;43.154;25.658;2023-07-30T10:36:45;100125.81;;;35.56
76713;BMP280;65640;43.154;25.658;2023-07-30T10:39:21;100128.06;;;35.57
76713;BMP280;65640;43.154;25.658;2023-07-30T10:41:52;100120.72;;;35.40
76713;BMP280;65640;43.154;25.658;2023-07-30T10:44:26;100123.81;;;35.66
76713;BMP280;65640;43.154;25.658;2023-07-30T10:46:56;100119.75;;;35.61
76713;BMP280;65640;43.154;25.658;2023-07-30T10:49:22;100124.69;;;35.72
76713;BMP280;65640;43.154;25.658;2023-07-30T10:51:47;100120.94;;;35.93
76713;BMP280;65640;43.154;25.658;2023-07-30T10:54:13;100123.69;;;36.16
76713;BMP280;65640;43.154;25.658;2023-07-30T10:56:41;100112.78;;;36.16
76713;BMP280;65640;43.154;25.658;2023-07-30T10:59:07;100114.34;;;36.08
76713;BMP280;65640;43.154;25.658;2023-07-30T11:01:43;100118.72;;;36.15
76713;BMP280;65640;43.154;25.658;2023-07-30T11:04:16;100115.97;;;36.38
76713;BMP280;65640;43.154;25.658;2023-07-30T11:06:50;100108.66;;;36.21
76713;BMP280;65640;43.154;25.658;2023-07-30T11:11:45;100107.78;;;35.91
76713;BMP280;65640;43.154;25.658;2023-07-30T11:14:22;100100.84;;;36.28
76713;BMP280;65640;43.154;25.658;2023-07-30T11:16:52;100109.47;;;36.36
76713;BMP280;65640;43.154;25.658;2023-07-30T11:19:18;100094.56;;;36.37
76713;BMP280;65640;43.154;25.658;2023-07-30T11:21:48;100101.25;;;35.98
76713;BMP280;65640;43.154;25.658;2023-07-30T11:24:14;100096.88;;;36.15
76713;BMP280;65640;43.154;25.658;2023-07-30T11:26:39;100098.09;;;36.14
76713;BMP280;65640;43.154;25.658;2023-07-30T11:29:18;100092.00;;;36.19
76713;BMP280;65640;43.154;25.658;2023-07-30T11:31:44;100089.19;;;36.28
76713;BMP280;65640;43.154;25.658;2023-07-30T11:34:11;100080.66;;;36.20
76713;BMP280;65640;43.154;25.658;2023-07-30T11:36:36;100093.41;;;36.14
76713;BMP280;65640;43.154;25.658;2023-07-30T11:39:03;100085.09;;;36.09
76713;BMP280;65640;43.154;25.658;2023-07-30T11:41:28;100079.59;;;36.32
76713;BMP280;65640;43.154;25.658;2023-07-30T11:43:54;100080.88;;;36.46
76713;BMP280;65640;43.154;25.658;2023-07-30T11:46:20;100073.69;;;36.34
76713;BMP280;65640;43.154;25.658;2023-07-30T11:48:52;100074.47;;;36.34
76713;BMP280;65640;43.154;25.658;2023-07-30T11:51:27;100068.97;;;36.20
76713;BMP280;65640;43.154;25.658;2023-07-30T11:53:54;100071.31;;;36.27
76713;BMP280;65640;43.154;25.658;2023-07-30T11:56:24;100060.84;;;36.11
76713;BMP280;65640;43.154;25.658;2023-07-30T11:58:52;100053.66;;;36.37
76713;BMP280;65640;43.154;25.658;2023-07-30T12:01:18;100051.53;;;36.41
76713;BMP280;65640;43.154;25.658;2023-07-30T12:03:44;100056.75;;;36.45
76713;BMP280;65640;43.154;25.658;2023-07-30T12:06:10;100052.63;;;36.20
76713;BMP280;65640;43.154;25.658;2023-07-30T12:08:36;100054.59;;;35.96
76713;BMP280;65640;43.154;25.658;2023-07-30T12:11:06;100052.34;;;35.61
76713;BMP280;65640;43.154;25.658;2023-07-30T12:13:33;100042.16;;;35.95
76713;BMP280;65640;43.154;25.658;2023-07-30T12:15:59;100035.50;;;36.34
76713;BMP280;65640;43.154;25.658;2023-07-30T12:18:25;100037.63;;;36.15
76713;BMP280;65640;43.154;25.658;2023-07-30T12:20:53;100037.38;;;36.04
76713;BMP280;65640;43.154;25.658;2023-07-30T12:23:19;100034.81;;;36.24
76713;BMP280;65640;43.154;25.658;2023-07-30T12:25:45;100039.09;;;36.40
76713;BMP280;65640;43.154;25.658;2023-07-30T12:28:11;100023.06;;;36.33
76713;BMP280;65640;43.154;25.658;2023-07-30T12:30:37;100021.41;;;36.50
76713;BMP280;65640;43.154;25.658;2023-07-30T12:33:03;100023.44;;;36.70
76713;BMP280;65640;43.154;25.658;2023-07-30T12:35:29;100008.13;;;36.87
76713;BMP280;65640;43.154;25.658;2023-07-30T12:37:55;100012.16;;;36.77
76713;BMP280;65640;43.154;25.658;2023-07-30T12:40:21;100011.44;;;36.76
76713;BMP280;65640;43.154;25.658;2023-07-30T12:42:46;100012.00;;;36.80
76713;BMP280;65640;43.154;25.658;2023-07-30T12:45:12;100010.97;;;36.63
76713;BMP280;65640;43.154;25.658;2023-07-30T12:47:37;100001.66;;;36.55
76713;BMP280;65640;43.154;25.658;2023-07-30T12:50:03;99996.38;;;36.66
76713;BMP280;65640;43.154;25.658;2023-07-30T12:52:30;99998.72;;;36.73
76713;BMP280;65640;43.154;25.658;2023-07-30T12:54:56;99995.34;;;36.78
76713;BMP280;65640;43.154;25.658;2023-07-30T12:57:21;99988.53;;;36.88
76713;BMP280;65640;43.154;25.658;2023-07-30T12:59:46;99989.09;;;36.92
76713;BMP280;65640;43.154;25.658;2023-07-30T13:02:12;99991.94;;;36.83
76713;BMP280;65640;43.154;25.658;2023-07-30T13:04:37;99978.00;;;36.81
76713;BMP280;65640;43.154;25.658;2023-07-30T13:07:03;99974.44;;;36.75
76713;BMP280;65640;43.154;25.658;2023-07-30T13:09:28;99986.75;;;36.71
76713;BMP280;65640;43.154;25.658;2023-07-30T13:11:55;99978.84;;;36.58
76713;BMP280;65640;43.154;25.658;2023-07-30T13:14:20;99979.44;;;36.48
76713;BMP280;65640;43.154;25.658;2023-07-30T13:16:46;99970.38;;;36.56
76713;BMP280;65640;43.154;25.658;2023-07-30T13:19:11;99963.88;;;36.83
76713;BMP280;65640;43.154;25.658;2023-07-30T13:21:37;99959.06;;;36.92
76713;BMP280;65640;43.154;25.658;2023-07-30T13:24:03;99957.81;;;36.93
76713;BMP280;65640;43.154;25.658;2023-07-30T13:26:28;99960.38;;;36.97
76713;BMP280;65640;43.154;25.658;2023-07-30T13:28:53;99957.88;;;37.13
76713;BMP280;65640;43.154;25.658;2023-07-30T13:31:19;99958.28;;;37.47
76713;BMP280;65640;43.154;25.658;2023-07-30T13:33:45;99947.63;;;37.69
76713;BMP280;65640;43.154;25.658;2023-07-30T13:36:12;99954.75;;;37.86
76713;BMP280;65640;43.154;25.658;2023-07-30T13:38:38;99943.63;;;37.90
76713;BMP280;65640;43.154;25.658;2023-07-30T13:41:05;99946.75;;;37.83